Aérodrome :
LOGIN :

S'inscrire | Disclaimer

   EN    FR    IT 

 










Légende :    VFR   VFR Marginal   IFR   IFR Intensif   IFR Très Intensif
Visi : 
Plafond : 
>= 8 km
>= 3000ft
5 à 8 km
1000 à 3000 ft
1500m à 5 km
500 à 1000 ft
800 à 1500m
200 à 500 ft
< 800m
< 200 ft
Symboles :   Orages  Brouillard  Fortes neiges  Fortes précipitations  Vent > 20 kt
SIGMETs :   Divers  Orages  Givrage  Turbulence  Onde Orograph.  Cendres Volcan.







- Altitude de l'aérodrome : 464 ft
- Code IATA : EVX
- Voir les cartes d'approche


LFOE - Evreux

DERNIER METAR :
  • 281200Z AUTO 31007KT 280V340 9999 -RA FEW027/// BKN038/// BKN047/// ///TCU 10/06 Q1017

METARs EXPIRÉS :
  • 281130Z AUTO 28006KT 9999 SCT028 BKN036 BKN045 11/05 Q1017
  • 281100Z AUTO 27007KT 230V320 9999 FEW020 BKN034 BKN058 12/06 Q1017
  • 281030Z AUTO 27004KT 230V330 9999 FEW026 SCT056 BKN240 11/06 Q1017
  • 281000Z AUTO 30005KT 9999 FEW018 SCT028 BKN037 10/05 Q1017
  • 280930Z AUTO VRB03KT 9999 FEW013 SCT041 OVC060 10/07 Q1017

TAF TAF LFOE
Valide du 28 à 09h jusqu'au 29 à 09h UTC


280800Z 2809/2909 31008KT 9999 BKN020
TEMPO 2809/2818 31010G20KT 4000 SHRA SCT010 BKN020TCU
TEMPO 2900/2907 3000 BR
PROB30
TEMPO 2902/2906 0800 BCFG
Pas de NOTAMs connus pour ce terrain.



MET'MAP, la Météo Aéronautique d'un coup d'oeil ! - Copyright ORBIFLY Décembre 2007 - Disclaimer

ORBIFLY MET'MAP TEAM :

Programmation & Développement : Alexandra Zaïnal
Conception & Développement : Baudouin d'Aumeries
Co-Programmation & Développement : Marc-Olivier Méhu
Soutien technique & logistique : Manuel Goepfert

Contact : metmap@orbifly.com




SOURCES & CREDITS :

   NOAA